Item Display Status Inductive CT Sensor

Mooring Depth: 60 m

 

Deployed Sensor

  • Serial Number: 4211
  • NDBC Property Number: 24587
  • Start Date: 11/5/2018 (13:33:04 Z)
  • End Date: Currently Active
Water Temperature [°C]     6 entries per hour
Showing data from 11/15/2019 (02:00:00 Z) to 11/14/2019 (00:00:01 Z)
Previous Next [ Day | 3-Days | 7-Days ]
First Last
Prev [ Day | 3-Days | 7-Days ] Next
First Last

Start Time:     :
End Time:     :     
Time (in GMT) :00 :50 :40 :30 :20 :10
Previous Next [ Day | 3-Days | 7-Days ]
First Last
Prev [ Day | 3-Days | 7-Days ] Next
First Last


123 => good data
MM => data is determined as missing
-- => data not received/configured
Back to Top Back to Top
11/15/2019 02:00 to 1:10 24.038 24.037 24.037 24.041 24.038 24.043
11/15/2019 01:00 to 0:10 24.044 24.043 24.043 24.040 24.043 24.040
11/15/2019 00:00 to 23:10 24.039 24.037 24.033 24.032 24.029 24.025
11/14/2019 23:00 to 22:10 24.035 24.034 24.025 24.030 24.024 24.024
11/14/2019 22:00 to 21:10 24.024 24.025 24.026 24.025 24.028 24.022
11/14/2019 21:00 to 20:10 24.024 24.020 24.021 24.020 24.019 24.019
11/14/2019 20:00 to 19:10 24.020 24.022 24.021 24.020 24.017 24.020
11/14/2019 19:00 to 18:10 24.016 24.018 24.018 24.020 24.019 24.016
11/14/2019 18:00 to 17:10 24.014 24.009 24.018 24.015 24.013 24.013
11/14/2019 17:00 to 16:10 24.005 24.009 24.004 24.002 24.004 24.002
11/14/2019 16:00 to 15:10 24.004 24.015 24.005 24.006 24.000 24.001
11/14/2019 15:00 to 14:10 24.002 24.008 24.011 24.003 23.999 23.999
11/14/2019 14:00 to 13:10 -- 24.001 24.000 23.982 23.997 23.989
11/14/2019 13:00 to 12:10 23.998 23.996 24.004 24.010 24.005 23.983
11/14/2019 12:00 to 11:10 24.023 -- 24.017 24.006 23.996 23.994
11/14/2019 11:00 to 10:10 24.005 23.990 23.967 23.993 23.971 23.981
11/14/2019 10:00 to 9:10 23.971 23.976 23.982 23.966 23.975 23.957
11/14/2019 09:00 to 8:10 23.941 23.944 23.943 -- 23.941 23.939
11/14/2019 08:00 to 7:10 23.945 23.941 23.940 23.934 23.929 23.929
11/14/2019 07:00 to 6:10 23.925 23.932 23.927 23.928 23.916 23.919
11/14/2019 06:00 to 5:10 23.920 23.919 23.911 23.918 23.910 23.905
11/14/2019 05:00 to 4:10 23.903 23.907 23.901 23.904 23.895 23.894
11/14/2019 04:00 to 3:10 23.902 23.900 23.902 23.912 23.900 23.903
11/14/2019 03:00 to 2:10 23.899 23.895 23.904 23.903 23.901 23.907
11/14/2019 02:00 to 1:10 23.907 23.922 23.909 23.902 23.916 23.908
11/14/2019 01:00 to 0:10 23.910 23.902 23.905 23.902 23.903 23.894

 

 

 

Conductivity [S/m]     6 entries per hour
Showing data from 11/15/2019 (02:00:00 Z) to 11/14/2019 (00:00:01 Z)
Previous Next [ Day | 3-Days | 7-Days ]
First Last
Prev [ Day | 3-Days | 7-Days ] Next
First Last

Start Time:     :
End Time:     :     
Time (in GMT) :00 :50 :40 :30 :20 :10
Previous Next [ Day | 3-Days | 7-Days ]
First Last
Prev [ Day | 3-Days | 7-Days ] Next
First Last


123 => good data
MM => data is determined as missing
-- => data not received/configured
Back to Top Back to Top
11/15/2019 02:00 to 1:10 5.19491 5.19478 5.19491 5.19542 5.19501 5.19573
11/15/2019 01:00 to 0:10 5.19599 5.19581 5.19568 5.19540 5.19581 5.19548
11/15/2019 00:00 to 23:10 5.19540 5.19504 5.19450 5.19417 5.19383 5.19343
11/14/2019 23:00 to 22:10 5.19473 5.19465 5.19332 5.19412 5.19319 5.19332
11/14/2019 22:00 to 21:10 5.19340 5.19337 5.19337 5.19343 5.19383 5.19314
11/14/2019 21:00 to 20:10 5.19337 5.19289 5.19309 5.19291 5.19281 5.19296
11/14/2019 20:00 to 19:10 5.19317 5.19325 5.19307 5.19307 5.19283 5.19312
11/14/2019 19:00 to 18:10 5.19271 5.19286 5.19286 5.19319 5.19325 5.19271
11/14/2019 18:00 to 17:10 5.19243 5.19186 5.19307 5.19255 5.19245 5.19230
11/14/2019 17:00 to 16:10 5.19138 5.19194 5.19148 5.19102 5.19117 5.19115
11/14/2019 16:00 to 15:10 5.19130 5.19263 5.19153 5.19171 5.19089 5.19092
11/14/2019 15:00 to 14:10 5.19115 5.19204 5.19225 5.19140 5.19066 5.19056
11/14/2019 14:00 to 13:10 5.19168 5.19138 5.19097 5.18871 5.19035 5.18948
11/14/2019 13:00 to 12:10 5.19045 5.19056 5.19135 5.19207 5.19155 5.18910
11/14/2019 12:00 to 11:10 5.19409 5.19325 5.19330 5.19145 5.19033 5.19002
11/14/2019 11:00 to 10:10 5.19176 5.19004 5.18667 5.19002 5.18705 5.18838
11/14/2019 10:00 to 9:10 5.18720 5.18779 5.18884 5.18682 5.18718 5.18618
11/14/2019 09:00 to 8:10 5.18342 5.18390 5.18362 5.18383 5.18347 5.18332
11/14/2019 08:00 to 7:10 5.18419 5.18360 5.18347 5.18247 5.18181 5.18194
11/14/2019 07:00 to 6:10 5.18137 5.18237 5.18176 5.18176 5.18033 5.18064
11/14/2019 06:00 to 5:10 5.18076 5.18081 5.17977 5.18048 5.17954 5.17898
11/14/2019 05:00 to 4:10 5.17885 5.17918 5.17844 5.17887 5.17748 5.17778
11/14/2019 04:00 to 3:10 5.17844 5.17818 5.17875 5.18033 5.17849 5.17900
11/14/2019 03:00 to 2:10 5.17852 5.17795 5.17931 5.17903 5.17918 5.17989
11/14/2019 02:00 to 1:10 5.17982 5.18207 5.18033 5.17954 5.18130 5.18046
11/14/2019 01:00 to 0:10 5.18074 5.17984 5.17995 5.17964 5.17954 5.17867

 

 

 

Salinity [psu]     6 entries per hour
Showing data from 11/15/2019 (02:00:00 Z) to 11/14/2019 (00:00:01 Z)
Previous Next [ Day | 3-Days | 7-Days ]
First Last
Prev [ Day | 3-Days | 7-Days ] Next
First Last

Start Time:     :
End Time:     :     
Time (in GMT) :00 :50 :40 :30 :20 :10
Previous Next [ Day | 3-Days | 7-Days ]
First Last
Prev [ Day | 3-Days | 7-Days ] Next
First Last


123 => good data
MM => data is determined as missing
-- => data not received/configured
Back to Top Back to Top
11/15/2019 02:00 to 1:10 34.89 34.89 34.89 34.89 34.89 34.89
11/15/2019 01:00 to 0:10 34.89 34.89 34.89 34.89 34.89 34.89
11/15/2019 00:00 to 23:10 34.89 34.89 34.89 34.89 34.89 34.89
11/14/2019 23:00 to 22:10 34.89 34.89 34.89 34.89 34.89 34.89
11/14/2019 22:00 to 21:10 34.89 34.89 34.89 34.89 34.89 34.89
11/14/2019 21:00 to 20:10 34.89 34.89 34.89 34.89 34.89 34.89
11/14/2019 20:00 to 19:10 34.89 34.89 34.89 34.89 34.89 34.89
11/14/2019 19:00 to 18:10 34.89 34.89 34.89 34.89 34.89 34.89
11/14/2019 18:00 to 17:10 34.89 34.89 34.89 34.89 34.89 34.89
11/14/2019 17:00 to 16:10 34.89 34.89 34.89 34.89 34.89 34.89
11/14/2019 16:00 to 15:10 34.89 34.89 34.89 34.89 34.89 34.89
11/14/2019 15:00 to 14:10 34.89 34.89 34.89 34.89 34.89 34.89
11/14/2019 14:00 to 13:10 34.89 34.89 34.89 34.89 34.89 34.89
11/14/2019 13:00 to 12:10 34.89 34.89 34.89 34.89 34.89 34.89
11/14/2019 12:00 to 11:10 34.90 34.89 34.89 34.89 34.89 34.89
11/14/2019 11:00 to 10:10 34.89 34.89 34.88 34.89 34.88 34.89
11/14/2019 10:00 to 9:10 34.88 34.88 34.89 34.89 34.88 34.89
11/14/2019 09:00 to 8:10 34.88 34.88 34.88 -- 34.88 34.88
11/14/2019 08:00 to 7:10 34.88 34.88 34.88 34.88 34.88 34.88
11/14/2019 07:00 to 6:10 34.88 34.88 34.88 34.88 34.88 34.88
11/14/2019 06:00 to 5:10 34.88 34.88 34.87 34.88 34.87 34.87
11/14/2019 05:00 to 4:10 34.87 34.87 34.87 34.87 34.87 34.87
11/14/2019 04:00 to 3:10 34.87 34.87 34.87 34.88 34.87 34.88
11/14/2019 03:00 to 2:10 34.88 34.87 34.88 34.88 34.88 34.88
11/14/2019 02:00 to 1:10 34.88 34.88 34.88 34.88 34.88 34.88
11/14/2019 01:00 to 0:10 34.88 34.88 34.88 34.88 34.88 34.88